CYYZ/YYZ METAR and TAF weather

Enter ICAO airport designator
Station Type Date Time Source
CYYZ METAR 2020/09/24 11:00 UTC NOAA

CYYZ 241100Z 01004KT 12SM FEW010 SCT260 14/12 A2991 RMK CF1CI4 CF TR SLP130 DENSITY ALT 600FT


Station Type Date Time Source
CYYZ Decoded METAR 2020/09/24 11:00 UTC NOAA

Toronto Pearson Int'L. Ont., Canada (CYYZ) 43-40N 079-38W 173M
Sep 24, 2020 - 07:00 AM EDT / 2020.09.24 1100 UTC
Wind: from the N (010 degrees) at 5 MPH (4 KT):0
Visibility: 12 mile(s):0
Sky conditions: partly cloudy
Temperature: 57 F (14 C)
Dew Point: 53 F (12 C)
Relative Humidity: 87%
Pressure (altimeter): 29.91 in. Hg (1012 hPa)
ob: CYYZ 241100Z 01004KT 12SM FEW010 SCT260 14/12 A2991 RMK CF1CI4 CF TR SLP130 DENSITY ALT 600FT
cycle: 11

Station Type Date Time Source
CYYZ TAF 2020/09/24 09:42 UTC NOAA

TAF CYYZ 240838Z 2409/2512 VRB03KT P6SM FEW240
FM241600 18010KT P6SM SCT050
FM242000 21010KT P6SM BKN050
TEMPO 2420/2501 P6SM -SHRA VCTS BKN020 OVC040CB
FM250200 VRB03KT P6SM BKN100
FM250600 VRB03KT 6SM BR FEW100 PROB30 2508/2512 2SM BR
RMK NXT FCST BY 241200Z

Example: see airport list